Taunton, New York
Current Conditions -  °F | °C
As of 10:45 PM on Saturday 24 Jan 2015 (Local Time) from KSYR Reporting Station
Light Snow Light Snow  
Wind Chill: -9°   Ceiling: 1600
Heat Index: -2°   Visibility: 2mi
Dew Point: -2°   Wind: 16mph
Humidity: 100%   Direction: 250°WSW
Pressure: 29.45"   Gusts: NA
Location:  43.0396°N, 76.2224°W
Report Text: KSYR 250345Z 25014KT 2SM -SN BR BKN016 OVC025 M02/M02 A2945 RMK AO2 P0000 T10221022 $
Loading
Personal Weather Stations






























Interactive Weather Map New forecast layout! Learn more

10-Day Weather Forecast

Advertisements
Track Severe Weather on mobile